sensor_id;sensor_type;location;lat;lon;timestamp;temperature;humidity
30678;DHT22;17437;47.188;8.896;2023-04-01T00:01:20;7.60;99.90
30678;DHT22;17437;47.188;8.896;2023-04-01T00:03:52;7.70;99.90
30678;DHT22;17437;47.188;8.896;2023-04-01T00:06:24;7.70;99.90
30678;DHT22;17437;47.188;8.896;2023-04-01T00:08:56;7.60;99.90
30678;DHT22;17437;47.188;8.896;2023-04-01T00:11:28;7.60;99.90
30678;DHT22;17437;47.188;8.896;2023-04-01T00:13:59;7.60;99.90
30678;DHT22;17437;47.188;8.896;2023-04-01T00:16:31;7.60;99.90
30678;DHT22;17437;47.188;8.896;2023-04-01T00:19:03;7.60;99.90
30678;DHT22;17437;47.188;8.896;2023-04-01T00:21:34;7.60;99.90
30678;DHT22;17437;47.188;8.896;2023-04-01T00:24:08;7.60;99.90
30678;DHT22;17437;47.188;8.896;2023-04-01T00:26:39;7.60;99.90
30678;DHT22;17437;47.188;8.896;2023-04-01T00:29:12;7.60;99.90
30678;DHT22;17437;47.188;8.896;2023-04-01T00:31:44;7.60;99.90
30678;DHT22;17437;47.188;8.896;2023-04-01T00:34:16;7.60;99.90
30678;DHT22;17437;47.188;8.896;2023-04-01T00:36:47;7.50;99.90
30678;DHT22;17437;47.188;8.896;2023-04-01T00:39:19;7.50;99.90
30678;DHT22;17437;47.188;8.896;2023-04-01T00:41:50;7.50;99.90
30678;DHT22;17437;47.188;8.896;2023-04-01T00:44:24;7.50;99.90
30678;DHT22;17437;47.188;8.896;2023-04-01T00:46:56;7.50;99.90
30678;DHT22;17437;47.188;8.896;2023-04-01T00:49:30;7.60;99.90
30678;DHT22;17437;47.188;8.896;2023-04-01T00:52:04;7.60;99.90
30678;DHT22;17437;47.188;8.896;2023-04-01T00:54:37;7.60;99.90
30678;DHT22;17437;47.188;8.896;2023-04-01T00:59:54;7.60;99.90
30678;DHT22;17437;47.188;8.896;2023-04-01T01:02:26;7.60;99.90
30678;DHT22;17437;47.188;8.896;2023-04-01T01:04:57;7.60;99.90
30678;DHT22;17437;47.188;8.896;2023-04-01T01:07:31;7.60;99.90
30678;DHT22;17437;47.188;8.896;2023-04-01T01:10:06;7.60;99.90
30678;DHT22;17437;47.188;8.896;2023-04-01T01:12:40;7.70;99.90
30678;DHT22;17437;47.188;8.896;2023-04-01T01:15:16;7.60;99.90
30678;DHT22;17437;47.188;8.896;2023-04-01T01:17:53;7.60;99.90
30678;DHT22;17437;47.188;8.896;2023-04-01T01:20:44;7.50;99.90
30678;DHT22;17437;47.188;8.896;2023-04-01T01:23:46;7.50;99.90
30678;DHT22;17437;47.188;8.896;2023-04-01T01:26:41;7.40;99.90
30678;DHT22;17437;47.188;8.896;2023-04-01T01:29:23;7.30;99.90
30678;DHT22;17437;47.188;8.896;2023-04-01T01:31:59;7.40;99.90
30678;DHT22;17437;47.188;8.896;2023-04-01T01:34:33;7.30;99.90
30678;DHT22;17437;47.188;8.896;2023-04-01T01:37:10;7.30;99.90
30678;DHT22;17437;47.188;8.896;2023-04-01T01:39:43;7.30;99.90
30678;DHT22;17437;47.188;8.896;2023-04-01T01:42:18;7.30;99.90
30678;DHT22;17437;47.188;8.896;2023-04-01T01:44:51;7.20;99.90
30678;DHT22;17437;47.188;8.896;2023-04-01T01:47:24;7.20;99.90
30678;DHT22;17437;47.188;8.896;2023-04-01T01:49:56;7.30;99.90
30678;DHT22;17437;47.188;8.896;2023-04-01T01:52:29;7.30;99.90
30678;DHT22;17437;47.188;8.896;2023-04-01T01:55:00;7.30;99.90
30678;DHT22;17437;47.188;8.896;2023-04-01T01:57:34;7.20;99.90
30678;DHT22;17437;47.188;8.896;2023-04-01T02:00:10;7.20;99.90
30678;DHT22;17437;47.188;8.896;2023-04-01T02:02:46;7.20;99.90
30678;DHT22;17437;47.188;8.896;2023-04-01T02:05:20;7.10;99.90
30678;DHT22;17437;47.188;8.896;2023-04-01T02:07:55;7.10;99.90
30678;DHT22;17437;47.188;8.896;2023-04-01T02:10:29;7.00;99.90
30678;DHT22;17437;47.188;8.896;2023-04-01T02:13:05;7.00;99.90
30678;DHT22;17437;47.188;8.896;2023-04-01T02:15:40;7.00;99.90
30678;DHT22;17437;47.188;8.896;2023-04-01T02:18:12;7.00;99.90
30678;DHT22;17437;47.188;8.896;2023-04-01T02:20:45;6.90;99.90
30678;DHT22;17437;47.188;8.896;2023-04-01T02:23:17;6.90;99.90
30678;DHT22;17437;47.188;8.896;2023-04-01T02:25:49;6.90;99.90
30678;DHT22;17437;47.188;8.896;2023-04-01T02:28:22;6.80;99.90
30678;DHT22;17437;47.188;8.896;2023-04-01T02:30:55;6.80;99.90
30678;DHT22;17437;47.188;8.896;2023-04-01T02:33:28;6.80;99.90
30678;DHT22;17437;47.188;8.896;2023-04-01T02:36:00;6.80;99.90
30678;DHT22;17437;47.188;8.896;2023-04-01T02:38:32;6.70;99.90
30678;DHT22;17437;47.188;8.896;2023-04-01T02:41:05;6.80;99.90
30678;DHT22;17437;47.188;8.896;2023-04-01T02:43:37;6.80;99.90
30678;DHT22;17437;47.188;8.896;2023-04-01T02:46:09;6.70;99.90
30678;DHT22;17437;47.188;8.896;2023-04-01T02:48:40;6.70;99.90
30678;DHT22;17437;47.188;8.896;2023-04-01T02:51:12;6.70;99.90
30678;DHT22;17437;47.188;8.896;2023-04-01T02:53:45;6.70;99.90
30678;DHT22;17437;47.188;8.896;2023-04-01T02:56:17;6.70;99.90
30678;DHT22;17437;47.188;8.896;2023-04-01T02:58:49;6.80;99.90
30678;DHT22;17437;47.188;8.896;2023-04-01T03:01:22;6.80;99.90
30678;DHT22;17437;47.188;8.896;2023-04-01T03:03:53;6.80;99.90
30678;DHT22;17437;47.188;8.896;2023-04-01T03:06:25;6.90;99.90
30678;DHT22;17437;47.188;8.896;2023-04-01T03:08:57;6.90;99.90
30678;DHT22;17437;47.188;8.896;2023-04-01T03:11:28;7.00;99.90
30678;DHT22;17437;47.188;8.896;2023-04-01T03:14:00;7.10;99.90
30678;DHT22;17437;47.188;8.896;2023-04-01T03:16:32;7.20;99.90
30678;DHT22;17437;47.188;8.896;2023-04-01T03:19:03;7.20;99.90
30678;DHT22;17437;47.188;8.896;2023-04-01T03:21:35;7.40;99.90
30678;DHT22;17437;47.188;8.896;2023-04-01T03:24:07;7.40;99.90
30678;DHT22;17437;47.188;8.896;2023-04-01T03:26:38;7.40;99.90
30678;DHT22;17437;47.188;8.896;2023-04-01T03:29:10;7.50;99.90
30678;DHT22;17437;47.188;8.896;2023-04-01T03:31:41;7.50;99.90
30678;DHT22;17437;47.188;8.896;2023-04-01T03:34:14;7.40;99.90
30678;DHT22;17437;47.188;8.896;2023-04-01T03:36:45;7.40;99.90
30678;DHT22;17437;47.188;8.896;2023-04-01T03:39:17;7.40;99.90
30678;DHT22;17437;47.188;8.896;2023-04-01T03:41:49;7.40;99.90
30678;DHT22;17437;47.188;8.896;2023-04-01T03:44:21;7.40;99.90
30678;DHT22;17437;47.188;8.896;2023-04-01T03:46:52;7.40;99.90
30678;DHT22;17437;47.188;8.896;2023-04-01T03:49:24;7.40;99.90
30678;DHT22;17437;47.188;8.896;2023-04-01T03:51:55;7.40;99.90
30678;DHT22;17437;47.188;8.896;2023-04-01T03:54:27;7.30;99.90
30678;DHT22;17437;47.188;8.896;2023-04-01T03:56:58;7.30;99.90
30678;DHT22;17437;47.188;8.896;2023-04-01T03:59:30;7.30;99.90
30678;DHT22;17437;47.188;8.896;2023-04-01T04:02:02;7.20;99.90
30678;DHT22;17437;47.188;8.896;2023-04-01T04:04:34;7.20;99.90
30678;DHT22;17437;47.188;8.896;2023-04-01T04:07:06;7.20;99.90
30678;DHT22;17437;47.188;8.896;2023-04-01T04:09:37;7.20;99.90
30678;DHT22;17437;47.188;8.896;2023-04-01T04:12:09;7.20;99.90
30678;DHT22;17437;47.188;8.896;2023-04-01T04:14:40;7.20;99.90
30678;DHT22;17437;47.188;8.896;2023-04-01T04:17:12;7.20;99.90
30678;DHT22;17437;47.188;8.896;2023-04-01T04:19:46;7.20;99.90
30678;DHT22;17437;47.188;8.896;2023-04-01T04:22:18;7.20;99.90
30678;DHT22;17437;47.188;8.896;2023-04-01T04:24:49;7.30;99.90
30678;DHT22;17437;47.188;8.896;2023-04-01T04:27:21;7.30;99.90
30678;DHT22;17437;47.188;8.896;2023-04-01T04:29:52;7.30;99.90
30678;DHT22;17437;47.188;8.896;2023-04-01T04:32:24;7.30;99.90
30678;DHT22;17437;47.188;8.896;2023-04-01T04:34:55;7.30;99.90
30678;DHT22;17437;47.188;8.896;2023-04-01T04:37:27;7.30;99.90
30678;DHT22;17437;47.188;8.896;2023-04-01T04:39:59;7.30;99.90
30678;DHT22;17437;47.188;8.896;2023-04-01T04:42:30;7.20;99.90
30678;DHT22;17437;47.188;8.896;2023-04-01T04:45:02;7.10;99.90
30678;DHT22;17437;47.188;8.896;2023-04-01T04:47:34;7.00;99.90
30678;DHT22;17437;47.188;8.896;2023-04-01T04:50:08;7.10;99.90
30678;DHT22;17437;47.188;8.896;2023-04-01T04:52:40;7.20;99.90
30678;DHT22;17437;47.188;8.896;2023-04-01T04:55:11;7.20;99.90
30678;DHT22;17437;47.188;8.896;2023-04-01T04:57:43;7.20;99.90
30678;DHT22;17437;47.188;8.896;2023-04-01T05:00:15;7.20;99.90
30678;DHT22;17437;47.188;8.896;2023-04-01T05:02:47;7.20;99.90
30678;DHT22;17437;47.188;8.896;2023-04-01T05:05:19;7.20;99.90
30678;DHT22;17437;47.188;8.896;2023-04-01T05:07:50;7.30;99.90
30678;DHT22;17437;47.188;8.896;2023-04-01T05:10:22;7.30;99.90
30678;DHT22;17437;47.188;8.896;2023-04-01T05:12:53;7.50;99.90
30678;DHT22;17437;47.188;8.896;2023-04-01T05:15:25;7.80;99.90
30678;DHT22;17437;47.188;8.896;2023-04-01T05:17:57;7.80;99.90
30678;DHT22;17437;47.188;8.896;2023-04-01T05:20:29;7.90;99.90
30678;DHT22;17437;47.188;8.896;2023-04-01T05:23:00;7.70;99.90
30678;DHT22;17437;47.188;8.896;2023-04-01T05:25:32;7.60;99.90
30678;DHT22;17437;47.188;8.896;2023-04-01T05:28:05;7.50;99.90
30678;DHT22;17437;47.188;8.896;2023-04-01T05:30:36;7.40;99.90
30678;DHT22;17437;47.188;8.896;2023-04-01T05:33:08;7.40;99.90
30678;DHT22;17437;47.188;8.896;2023-04-01T05:35:40;7.30;99.90
30678;DHT22;17437;47.188;8.896;2023-04-01T05:38:12;7.30;99.90
30678;DHT22;17437;47.188;8.896;2023-04-01T05:40:43;7.30;99.90
30678;DHT22;17437;47.188;8.896;2023-04-01T05:43:15;7.30;99.90
30678;DHT22;17437;47.188;8.896;2023-04-01T05:45:47;7.30;99.90
30678;DHT22;17437;47.188;8.896;2023-04-01T05:48:19;7.40;99.90
30678;DHT22;17437;47.188;8.896;2023-04-01T05:50:51;7.40;99.90
30678;DHT22;17437;47.188;8.896;2023-04-01T05:53:23;7.40;99.90
30678;DHT22;17437;47.188;8.896;2023-04-01T05:55:54;7.50;99.90
30678;DHT22;17437;47.188;8.896;2023-04-01T05:58:26;7.60;99.90
30678;DHT22;17437;47.188;8.896;2023-04-01T06:01:02;7.70;99.90
30678;DHT22;17437;47.188;8.896;2023-04-01T06:03:36;7.80;99.90
30678;DHT22;17437;47.188;8.896;2023-04-01T06:06:14;7.80;99.90
30678;DHT22;17437;47.188;8.896;2023-04-01T06:08:46;7.90;99.90
30678;DHT22;17437;47.188;8.896;2023-04-01T06:11:24;8.00;99.90
30678;DHT22;17437;47.188;8.896;2023-04-01T06:14:09;8.00;99.90
30678;DHT22;17437;47.188;8.896;2023-04-01T06:16:48;8.00;99.90
30678;DHT22;17437;47.188;8.896;2023-04-01T06:19:32;8.00;99.90
30678;DHT22;17437;47.188;8.896;2023-04-01T06:22:39;8.00;99.90
30678;DHT22;17437;47.188;8.896;2023-04-01T06:31:14;8.00;99.90
30678;DHT22;17437;47.188;8.896;2023-04-01T06:33:57;8.00;99.90
30678;DHT22;17437;47.188;8.896;2023-04-01T06:36:39;8.10;99.90
30678;DHT22;17437;47.188;8.896;2023-04-01T06:39:33;8.10;99.90
30678;DHT22;17437;47.188;8.896;2023-04-01T06:42:39;8.10;99.90
30678;DHT22;17437;47.188;8.896;2023-04-01T06:45:20;8.10;99.90
30678;DHT22;17437;47.188;8.896;2023-04-01T06:47:59;8.10;99.90
30678;DHT22;17437;47.188;8.896;2023-04-01T06:50:35;8.10;99.90
30678;DHT22;17437;47.188;8.896;2023-04-01T06:53:11;8.20;99.90
30678;DHT22;17437;47.188;8.896;2023-04-01T06:55:44;8.30;99.90
30678;DHT22;17437;47.188;8.896;2023-04-01T06:58:25;8.30;99.90
30678;DHT22;17437;47.188;8.896;2023-04-01T07:01:03;8.40;99.90
30678;DHT22;17437;47.188;8.896;2023-04-01T07:03:38;8.40;99.90
30678;DHT22;17437;47.188;8.896;2023-04-01T07:06:31;8.40;99.90
30678;DHT22;17437;47.188;8.896;2023-04-01T07:09:08;8.50;99.90
30678;DHT22;17437;47.188;8.896;2023-04-01T07:14:53;8.60;99.90
30678;DHT22;17437;47.188;8.896;2023-04-01T07:20:58;8.80;99.90
30678;DHT22;17437;47.188;8.896;2023-04-01T07:23:32;8.90;99.90
30678;DHT22;17437;47.188;8.896;2023-04-01T07:26:11;9.00;99.90
30678;DHT22;17437;47.188;8.896;2023-04-01T07:28:40;9.10;99.90
30678;DHT22;17437;47.188;8.896;2023-04-01T07:31:18;9.20;99.90
30678;DHT22;17437;47.188;8.896;2023-04-01T07:33:57;9.20;99.90
30678;DHT22;17437;47.188;8.896;2023-04-01T07:36:33;9.20;99.90
30678;DHT22;17437;47.188;8.896;2023-04-01T07:39:10;9.00;99.90
30678;DHT22;17437;47.188;8.896;2023-04-01T07:41:48;8.90;99.90
30678;DHT22;17437;47.188;8.896;2023-04-01T07:44:26;8.80;99.90
30678;DHT22;17437;47.188;8.896;2023-04-01T07:47:06;8.70;99.90
30678;DHT22;17437;47.188;8.896;2023-04-01T07:49:42;8.60;99.90
30678;DHT22;17437;47.188;8.896;2023-04-01T07:52:16;8.60;99.90
30678;DHT22;17437;47.188;8.896;2023-04-01T07:54:51;8.50;99.90
30678;DHT22;17437;47.188;8.896;2023-04-01T07:57:27;8.50;99.90
30678;DHT22;17437;47.188;8.896;2023-04-01T08:00:02;8.50;99.90
30678;DHT22;17437;47.188;8.896;2023-04-01T08:02:41;8.60;99.90
30678;DHT22;17437;47.188;8.896;2023-04-01T08:05:19;8.70;99.90
30678;DHT22;17437;47.188;8.896;2023-04-01T08:07:54;8.80;99.90
30678;DHT22;17437;47.188;8.896;2023-04-01T08:10:29;8.90;99.90
30678;DHT22;17437;47.188;8.896;2023-04-01T08:13:05;9.00;99.90
30678;DHT22;17437;47.188;8.896;2023-04-01T08:15:40;9.10;99.90
30678;DHT22;17437;47.188;8.896;2023-04-01T08:18:16;9.20;99.90
30678;DHT22;17437;47.188;8.896;2023-04-01T08:20:51;9.30;99.90
30678;DHT22;17437;47.188;8.896;2023-04-01T08:23:26;9.30;99.90
30678;DHT22;17437;47.188;8.896;2023-04-01T08:26:01;9.30;99.90
30678;DHT22;17437;47.188;8.896;2023-04-01T08:28:36;9.50;99.90
30678;DHT22;17437;47.188;8.896;2023-04-01T08:31:10;9.50;99.90
30678;DHT22;17437;47.188;8.896;2023-04-01T08:33:44;9.60;99.90
30678;DHT22;17437;47.188;8.896;2023-04-01T08:36:20;9.70;99.90
30678;DHT22;17437;47.188;8.896;2023-04-01T08:38:57;9.80;99.90
30678;DHT22;17437;47.188;8.896;2023-04-01T08:45:00;9.80;99.90
30678;DHT22;17437;47.188;8.896;2023-04-01T08:47:44;9.80;99.90
30678;DHT22;17437;47.188;8.896;2023-04-01T08:50:30;9.60;99.90
30678;DHT22;17437;47.188;8.896;2023-04-01T08:53:06;9.50;99.90
30678;DHT22;17437;47.188;8.896;2023-04-01T08:55:49;9.50;99.90
30678;DHT22;17437;47.188;8.896;2023-04-01T08:58:54;9.50;99.90
30678;DHT22;17437;47.188;8.896;2023-04-01T09:01:52;9.40;99.90
30678;DHT22;17437;47.188;8.896;2023-04-01T09:04:32;9.40;99.90
30678;DHT22;17437;47.188;8.896;2023-04-01T09:07:15;9.40;99.90
30678;DHT22;17437;47.188;8.896;2023-04-01T09:10:14;9.60;99.90
30678;DHT22;17437;47.188;8.896;2023-04-01T09:13:00;9.70;99.90
30678;DHT22;17437;47.188;8.896;2023-04-01T09:19:11;10.00;99.90
30678;DHT22;17437;47.188;8.896;2023-04-01T09:25:31;10.10;99.90
30678;DHT22;17437;47.188;8.896;2023-04-01T09:28:10;10.10;99.90
30678;DHT22;17437;47.188;8.896;2023-04-01T09:36:55;10.10;99.90
30678;DHT22;17437;47.188;8.896;2023-04-01T09:39:39;10.20;99.90
30678;DHT22;17437;47.188;8.896;2023-04-01T09:48:21;10.20;99.90
30678;DHT22;17437;47.188;8.896;2023-04-01T09:50:57;10.30;99.90
30678;DHT22;17437;47.188;8.896;2023-04-01T09:53:39;10.30;99.90
30678;DHT22;17437;47.188;8.896;2023-04-01T09:56:52;10.30;99.90
30678;DHT22;17437;47.188;8.896;2023-04-01T10:06:38;10.60;99.90
30678;DHT22;17437;47.188;8.896;2023-04-01T10:10:04;10.70;99.90
30678;DHT22;17437;47.188;8.896;2023-04-01T10:16:03;10.70;99.90
30678;DHT22;17437;47.188;8.896;2023-04-01T10:18:46;10.60;99.90
30678;DHT22;17437;47.188;8.896;2023-04-01T10:21:58;10.80;99.90
30678;DHT22;17437;47.188;8.896;2023-04-01T10:28:27;10.90;99.90
30678;DHT22;17437;47.188;8.896;2023-04-01T10:31:15;10.90;99.90
30678;DHT22;17437;47.188;8.896;2023-04-01T10:37:19;11.10;99.90
30678;DHT22;17437;47.188;8.896;2023-04-01T10:46:18;11.60;99.90
30678;DHT22;17437;47.188;8.896;2023-04-01T10:58:45;12.40;99.90
30678;DHT22;17437;47.188;8.896;2023-04-01T11:01:21;12.40;99.90
30678;DHT22;17437;47.188;8.896;2023-04-01T11:04:20;12.50;99.90
30678;DHT22;17437;47.188;8.896;2023-04-01T11:07:24;12.40;99.90
30678;DHT22;17437;47.188;8.896;2023-04-01T11:26:33;12.40;99.90
30678;DHT22;17437;47.188;8.896;2023-04-01T11:32:09;12.70;99.90
30678;DHT22;17437;47.188;8.896;2023-04-01T11:34:50;12.70;99.90
30678;DHT22;17437;47.188;8.896;2023-04-01T11:37:28;12.90;99.90
30678;DHT22;17437;47.188;8.896;2023-04-01T11:40:06;12.90;99.90
30678;DHT22;17437;47.188;8.896;2023-04-01T11:42:43;12.90;99.90
30678;DHT22;17437;47.188;8.896;2023-04-01T11:45:23;12.90;99.90
30678;DHT22;17437;47.188;8.896;2023-04-01T11:48:12;12.80;99.90
30678;DHT22;17437;47.188;8.896;2023-04-01T11:50:53;12.60;99.90
30678;DHT22;17437;47.188;8.896;2023-04-01T11:53:32;12.50;99.90
30678;DHT22;17437;47.188;8.896;2023-04-01T11:56:13;12.30;99.90
30678;DHT22;17437;47.188;8.896;2023-04-01T11:59:22;12.20;99.90
30678;DHT22;17437;47.188;8.896;2023-04-01T12:01:46;12.20;99.90
30678;DHT22;17437;47.188;8.896;2023-04-01T12:05:03;12.30;99.90
30678;DHT22;17437;47.188;8.896;2023-04-01T12:08:06;12.60;99.90
30678;DHT22;17437;47.188;8.896;2023-04-01T12:10:42;13.00;99.90
30678;DHT22;17437;47.188;8.896;2023-04-01T12:13:22;13.40;99.90
30678;DHT22;17437;47.188;8.896;2023-04-01T12:16:11;13.70;99.90
30678;DHT22;17437;47.188;8.896;2023-04-01T12:18:46;13.80;99.90
30678;DHT22;17437;47.188;8.896;2023-04-01T12:21:23;13.90;99.90
30678;DHT22;17437;47.188;8.896;2023-04-01T12:24:04;14.00;99.90
30678;DHT22;17437;47.188;8.896;2023-04-01T12:27:11;14.00;99.90
30678;DHT22;17437;47.188;8.896;2023-04-01T12:32:55;14.30;99.90
30678;DHT22;17437;47.188;8.896;2023-04-01T12:35:29;14.30;99.90
30678;DHT22;17437;47.188;8.896;2023-04-01T12:38:16;14.30;99.90
30678;DHT22;17437;47.188;8.896;2023-04-01T12:41:09;14.10;99.90
30678;DHT22;17437;47.188;8.896;2023-04-01T12:47:11;13.90;99.90
30678;DHT22;17437;47.188;8.896;2023-04-01T12:49:56;13.90;99.90
30678;DHT22;17437;47.188;8.896;2023-04-01T12:52:37;13.80;99.90
30678;DHT22;17437;47.188;8.896;2023-04-01T12:58:54;13.40;99.90
30678;DHT22;17437;47.188;8.896;2023-04-01T13:08:20;12.60;99.90
30678;DHT22;17437;47.188;8.896;2023-04-01T13:11:04;12.80;99.90
30678;DHT22;17437;47.188;8.896;2023-04-01T13:16:40;13.30;99.90
30678;DHT22;17437;47.188;8.896;2023-04-01T13:19:16;13.60;99.90
30678;DHT22;17437;47.188;8.896;2023-04-01T13:21:54;13.80;99.90
30678;DHT22;17437;47.188;8.896;2023-04-01T13:24:36;14.00;99.90
30678;DHT22;17437;47.188;8.896;2023-04-01T13:27:13;14.10;99.90
30678;DHT22;17437;47.188;8.896;2023-04-01T13:29:52;14.20;99.90
30678;DHT22;17437;47.188;8.896;2023-04-01T13:32:28;14.40;99.90
30678;DHT22;17437;47.188;8.896;2023-04-01T13:35:10;14.70;99.90
30678;DHT22;17437;47.188;8.896;2023-04-01T13:37:50;14.90;99.90
30678;DHT22;17437;47.188;8.896;2023-04-01T13:40:36;15.10;99.90
30678;DHT22;17437;47.188;8.896;2023-04-01T13:43:15;15.20;99.90
30678;DHT22;17437;47.188;8.896;2023-04-01T13:52:03;15.20;99.90
30678;DHT22;17437;47.188;8.896;2023-04-01T13:54:53;15.10;99.90
30678;DHT22;17437;47.188;8.896;2023-04-01T13:57:36;15.10;99.90
30678;DHT22;17437;47.188;8.896;2023-04-01T14:06:15;15.40;99.90
30678;DHT22;17437;47.188;8.896;2023-04-01T14:09:19;15.20;99.90
30678;DHT22;17437;47.188;8.896;2023-04-01T14:11:55;14.90;99.90
30678;DHT22;17437;47.188;8.896;2023-04-01T14:14:33;14.80;99.90
30678;DHT22;17437;47.188;8.896;2023-04-01T14:17:22;14.70;99.90
30678;DHT22;17437;47.188;8.896;2023-04-01T14:20:13;14.60;99.90
30678;DHT22;17437;47.188;8.896;2023-04-01T14:22:46;14.60;99.90
30678;DHT22;17437;47.188;8.896;2023-04-01T14:25:50;14.50;99.90
30678;DHT22;17437;47.188;8.896;2023-04-01T14:28:27;14.60;99.90
30678;DHT22;17437;47.188;8.896;2023-04-01T14:31:15;14.70;99.90
30678;DHT22;17437;47.188;8.896;2023-04-01T14:33:53;14.70;99.90
30678;DHT22;17437;47.188;8.896;2023-04-01T14:39:32;14.90;99.90
30678;DHT22;17437;47.188;8.896;2023-04-01T14:42:13;15.00;99.90
30678;DHT22;17437;47.188;8.896;2023-04-01T14:45:02;14.90;99.90
30678;DHT22;17437;47.188;8.896;2023-04-01T14:47:42;14.80;99.90
30678;DHT22;17437;47.188;8.896;2023-04-01T14:50:17;14.60;99.90
30678;DHT22;17437;47.188;8.896;2023-04-01T14:52:56;14.60;99.90
30678;DHT22;17437;47.188;8.896;2023-04-01T14:55:34;14.50;99.90
30678;DHT22;17437;47.188;8.896;2023-04-01T14:58:11;14.40;99.90
30678;DHT22;17437;47.188;8.896;2023-04-01T15:01:10;14.50;99.90
30678;DHT22;17437;47.188;8.896;2023-04-01T15:03:46;14.40;99.90
30678;DHT22;17437;47.188;8.896;2023-04-01T15:06:32;14.20;99.90
30678;DHT22;17437;47.188;8.896;2023-04-01T15:09:07;13.90;99.90
30678;DHT22;17437;47.188;8.896;2023-04-01T15:11:48;13.20;99.90
30678;DHT22;17437;47.188;8.896;2023-04-01T15:14:27;12.50;99.90
30678;DHT22;17437;47.188;8.896;2023-04-01T15:17:22;11.80;99.90
30678;DHT22;17437;47.188;8.896;2023-04-01T15:20:04;11.30;99.90
30678;DHT22;17437;47.188;8.896;2023-04-01T15:22:48;10.90;99.90
30678;DHT22;17437;47.188;8.896;2023-04-01T15:25:29;10.70;99.90
30678;DHT22;17437;47.188;8.896;2023-04-01T15:28:05;10.60;99.90
30678;DHT22;17437;47.188;8.896;2023-04-01T15:30:44;10.50;99.90
30678;DHT22;17437;47.188;8.896;2023-04-01T15:36:35;10.40;99.90
30678;DHT22;17437;47.188;8.896;2023-04-01T15:39:14;10.40;99.90
30678;DHT22;17437;47.188;8.896;2023-04-01T15:41:56;10.50;99.90
30678;DHT22;17437;47.188;8.896;2023-04-01T15:44:41;10.60;99.90
30678;DHT22;17437;47.188;8.896;2023-04-01T15:47:26;10.70;99.90
30678;DHT22;17437;47.188;8.896;2023-04-01T15:50:03;10.80;99.90
30678;DHT22;17437;47.188;8.896;2023-04-01T15:52:39;11.00;99.90
30678;DHT22;17437;47.188;8.896;2023-04-01T15:55:19;11.10;99.90
30678;DHT22;17437;47.188;8.896;2023-04-01T15:58:14;11.20;99.90
30678;DHT22;17437;47.188;8.896;2023-04-01T16:00:44;11.40;99.90
30678;DHT22;17437;47.188;8.896;2023-04-01T16:03:28;11.50;99.90
30678;DHT22;17437;47.188;8.896;2023-04-01T16:06:11;11.60;99.90
30678;DHT22;17437;47.188;8.896;2023-04-01T16:11:47;11.80;99.90
30678;DHT22;17437;47.188;8.896;2023-04-01T16:14:26;11.80;99.90
30678;DHT22;17437;47.188;8.896;2023-04-01T16:17:05;11.80;99.90
30678;DHT22;17437;47.188;8.896;2023-04-01T16:19:43;11.70;99.90
30678;DHT22;17437;47.188;8.896;2023-04-01T16:22:18;11.60;99.90
30678;DHT22;17437;47.188;8.896;2023-04-01T16:24:54;11.50;99.90
30678;DHT22;17437;47.188;8.896;2023-04-01T16:27:32;11.30;99.90
30678;DHT22;17437;47.188;8.896;2023-04-01T16:30:16;11.20;99.90
30678;DHT22;17437;47.188;8.896;2023-04-01T16:32:44;11.10;99.90
30678;DHT22;17437;47.188;8.896;2023-04-01T16:35:30;11.10;99.90
30678;DHT22;17437;47.188;8.896;2023-04-01T16:38:05;11.00;99.90
30678;DHT22;17437;47.188;8.896;2023-04-01T16:40:44;11.00;99.90
30678;DHT22;17437;47.188;8.896;2023-04-01T16:43:24;11.00;99.90
30678;DHT22;17437;47.188;8.896;2023-04-01T16:48:58;10.90;99.90
30678;DHT22;17437;47.188;8.896;2023-04-01T16:51:41;10.90;99.90
30678;DHT22;17437;47.188;8.896;2023-04-01T16:54:18;10.80;99.90
30678;DHT22;17437;47.188;8.896;2023-04-01T16:56:54;10.80;99.90
30678;DHT22;17437;47.188;8.896;2023-04-01T16:59:29;10.70;99.90
30678;DHT22;17437;47.188;8.896;2023-04-01T17:02:08;10.70;99.90
30678;DHT22;17437;47.188;8.896;2023-04-01T17:04:42;10.70;99.90
30678;DHT22;17437;47.188;8.896;2023-04-01T17:07:23;10.70;99.90
30678;DHT22;17437;47.188;8.896;2023-04-01T17:10:14;10.80;99.90
30678;DHT22;17437;47.188;8.896;2023-04-01T17:12:49;10.70;99.90
30678;DHT22;17437;47.188;8.896;2023-04-01T17:15:25;10.70;99.90
30678;DHT22;17437;47.188;8.896;2023-04-01T17:17:59;10.70;99.90
30678;DHT22;17437;47.188;8.896;2023-04-01T17:20:40;10.70;99.90
30678;DHT22;17437;47.188;8.896;2023-04-01T17:23:18;10.80;99.90
30678;DHT22;17437;47.188;8.896;2023-04-01T17:26:03;10.80;99.90
30678;DHT22;17437;47.188;8.896;2023-04-01T17:28:44;10.60;99.90
30678;DHT22;17437;47.188;8.896;2023-04-01T17:31:30;10.10;99.90
30678;DHT22;17437;47.188;8.896;2023-04-01T17:34:30;9.60;99.90
30678;DHT22;17437;47.188;8.896;2023-04-01T17:37:20;9.30;99.90
30678;DHT22;17437;47.188;8.896;2023-04-01T17:40:03;9.10;99.90
30678;DHT22;17437;47.188;8.896;2023-04-01T17:42:38;8.90;99.90
30678;DHT22;17437;47.188;8.896;2023-04-01T17:45:18;8.90;99.90
30678;DHT22;17437;47.188;8.896;2023-04-01T17:47:54;8.80;99.90
30678;DHT22;17437;47.188;8.896;2023-04-01T17:50:30;8.70;99.90
30678;DHT22;17437;47.188;8.896;2023-04-01T17:53:16;8.70;99.90
30678;DHT22;17437;47.188;8.896;2023-04-01T17:55:53;8.70;99.90
30678;DHT22;17437;47.188;8.896;2023-04-01T17:58:31;8.70;99.90
30678;DHT22;17437;47.188;8.896;2023-04-01T18:04:37;8.70;99.90
30678;DHT22;17437;47.188;8.896;2023-04-01T18:10:28;8.60;99.90
30678;DHT22;17437;47.188;8.896;2023-04-01T18:13:35;8.60;99.90
30678;DHT22;17437;47.188;8.896;2023-04-01T18:16:17;8.50;99.90
30678;DHT22;17437;47.188;8.896;2023-04-01T18:18:54;8.40;99.90
30678;DHT22;17437;47.188;8.896;2023-04-01T18:21:33;8.40;99.90
30678;DHT22;17437;47.188;8.896;2023-04-01T18:24:13;8.40;99.90
30678;DHT22;17437;47.188;8.896;2023-04-01T18:26:47;8.40;99.90
30678;DHT22;17437;47.188;8.896;2023-04-01T18:29:27;8.40;99.90
30678;DHT22;17437;47.188;8.896;2023-04-01T18:32:17;8.40;99.90
30678;DHT22;17437;47.188;8.896;2023-04-01T18:34:55;8.40;99.90
30678;DHT22;17437;47.188;8.896;2023-04-01T18:37:30;8.40;99.90
30678;DHT22;17437;47.188;8.896;2023-04-01T18:40:11;8.40;99.90
30678;DHT22;17437;47.188;8.896;2023-04-01T18:42:50;8.40;99.90
30678;DHT22;17437;47.188;8.896;2023-04-01T18:45:26;8.40;99.90
30678;DHT22;17437;47.188;8.896;2023-04-01T18:48:01;8.40;99.90
30678;DHT22;17437;47.188;8.896;2023-04-01T18:50:37;8.30;99.90
30678;DHT22;17437;47.188;8.896;2023-04-01T18:53:17;8.30;99.90
30678;DHT22;17437;47.188;8.896;2023-04-01T18:55:53;8.30;99.90
30678;DHT22;17437;47.188;8.896;2023-04-01T18:58:29;8.30;99.90
30678;DHT22;17437;47.188;8.896;2023-04-01T19:01:19;8.20;99.90
30678;DHT22;17437;47.188;8.896;2023-04-01T19:04:01;8.30;99.90
30678;DHT22;17437;47.188;8.896;2023-04-01T19:06:35;8.20;99.90
30678;DHT22;17437;47.188;8.896;2023-04-01T19:09:20;8.10;99.90
30678;DHT22;17437;47.188;8.896;2023-04-01T19:12:07;8.10;99.90